Portada
METAR-TAF:

METAR-TAF

Aeroports :

Schefferville, Quebec, Canadà

latitud: 54-48N, longitud: 066-48W, altitud: 521 m

Observació

L'informe es va fer fa 1 hora i 6 minuts, a les 14:00 UTC
Vent 4 kt amb direcció variable
Temperatura 5°C
Humitat 65%
Pressió 1026 hPa
Visibilitat: 14.5 km
Cel clar

METAR: CYKL 171400Z AUTO VRB04KT 9SM CLR 05/M01 A3030 RMK SLP290

Hora: 11:06 (15:06 UTC)

Pronòstic

L'informe es va fer fa 1 hora i 26 minuts, a les 13:40 UTC
Pronòstic vàlid del 17 a les 14 UTC al 18 a les 02 UTC
Vent 3 kt amb direcció variable
Visibilitat: 10 km
Escasses núvols a una alçada de 20000 ft
Evolucionant progressivament
l' 17 a les 14 UTC al 17 a les 16 UTC
Vent 5 kt del Nord
Evolucionant progressivament
l' 17 a les 22 UTC al 17 a les 24 UTC
Vent 3 kt amb direcció variable

TAF: CYKL 171340Z 1714/1802 VRB03KT P6SM FEW200 BECMG 1714/1716 36005KT BECMG 1722/1724 VRB03KT RMK FCST BASED ON AUTO OBS. NXT FCST BY 172000Z

Observacions i pronòstics meteorològics de més de 4000 aeroports (METAR i TAF).

Les estacions disponibles són els punts grocs i vermells al mapa.

Posi el ratolí al punt desitjat per veure el nom de l'estació.

Feu clic per veure les observacions i els pronòstics meteorològics.

Per canviar el mapa: feu clic els botons verds amb una creu de color negre per apropar; al botó verd amb un guió per allunyar la imatge; o en les fletxes verdes per a mapes adjacents.


METAR-TAF: